createdAt,value
2019-02-28T00:03:04.575Z,31.83
2019-02-28T00:05:33.171Z,31.10
2019-02-28T00:08:01.643Z,30.47
2019-02-28T00:10:30.873Z,26.80
2019-02-28T00:13:09.885Z,27.93
2019-02-28T00:15:38.171Z,29.50
2019-02-28T00:18:06.031Z,28.13
2019-02-28T00:20:34.138Z,26.30
2019-02-28T00:23:02.714Z,24.67
2019-02-28T00:25:31.398Z,25.60
2019-02-28T00:27:59.915Z,27.20
2019-02-28T00:30:28.480Z,102.60
2019-02-28T00:32:59.301Z,98.60
2019-02-28T00:35:27.303Z,46.00
2019-02-28T00:37:56.682Z,34.80
2019-02-28T00:40:26.005Z,33.03
2019-02-28T00:42:53.910Z,25.47
2019-02-28T00:45:21.758Z,25.13
2019-02-28T00:47:49.922Z,29.90
2019-02-28T00:50:18.209Z,28.83
2019-02-28T00:52:46.089Z,26.70
2019-02-28T00:55:15.241Z,21.43
2019-02-28T00:57:50.726Z,27.77
2019-02-28T01:00:18.700Z,25.47
2019-02-28T01:02:52.163Z,23.93
2019-02-28T01:05:26.391Z,26.63
2019-02-28T01:07:54.919Z,23.83
2019-02-28T01:10:23.506Z,24.43
2019-02-28T01:12:54.368Z,21.43
2019-02-28T01:15:28.913Z,25.03
2019-02-28T01:18:00.481Z,25.93
2019-02-28T01:20:34.845Z,25.07
2019-02-28T01:23:03.132Z,20.37
2019-02-28T01:25:31.728Z,20.00
2019-02-28T01:27:59.998Z,22.33
2019-02-28T01:30:28.582Z,19.73
2019-02-28T01:32:56.573Z,21.67
2019-02-28T01:35:25.160Z,21.10
2019-02-28T01:37:53.406Z,19.60
2019-02-28T01:40:21.240Z,24.27
2019-02-28T01:42:54.004Z,20.50
2019-02-28T01:45:26.460Z,17.37
2019-02-28T01:47:54.751Z,20.40
2019-02-28T01:50:22.904Z,18.60
2019-02-28T01:52:51.522Z,18.60
2019-02-28T01:55:20.100Z,21.43
2019-02-28T01:57:48.720Z,22.63
2019-02-28T02:03:40.674Z,22.67
2019-02-28T02:06:14.734Z,19.63
2019-02-28T02:08:42.692Z,20.80
2019-02-28T02:11:11.301Z,19.60
2019-02-28T02:13:39.900Z,19.00
2019-02-28T02:16:08.062Z,21.47
2019-02-28T02:18:36.708Z,20.77
2019-02-28T02:21:04.565Z,19.00
2019-02-28T02:23:33.040Z,20.37
2019-02-28T02:26:01.443Z,19.20
2019-02-28T02:28:29.781Z,18.77
2019-02-28T02:30:58.065Z,20.67
2019-02-28T02:33:26.043Z,18.97
2019-02-28T02:35:54.560Z,19.67
2019-02-28T02:38:23.117Z,20.67
2019-02-28T02:40:59.056Z,18.90
2019-02-28T02:43:32.099Z,18.57
2019-02-28T02:46:00.377Z,20.00
2019-02-28T02:48:28.392Z,20.67
2019-02-28T02:50:57.052Z,19.63
2019-02-28T02:53:25.300Z,21.50
2019-02-28T02:55:53.922Z,19.23
2019-02-28T02:58:26.636Z,20.00
2019-02-28T03:00:58.941Z,21.90
2019-02-28T03:03:27.225Z,20.03
2019-02-28T03:05:54.995Z,15.97
2019-02-28T03:08:23.690Z,20.57
2019-02-28T03:10:53.031Z,18.87
2019-02-28T03:13:28.131Z,19.00
2019-02-28T03:15:59.303Z,18.47
2019-02-28T03:18:36.261Z,20.00
2019-02-28T03:21:04.479Z,19.67
2019-02-28T03:23:37.954Z,19.40
2019-02-28T03:26:12.480Z,16.40
2019-02-28T03:28:40.761Z,18.80
2019-02-28T03:31:14.481Z,18.20
2019-02-28T03:33:46.413Z,21.37
2019-02-28T03:36:15.856Z,21.90
2019-02-28T03:38:50.981Z,19.90
2019-02-28T03:41:19.542Z,18.23
2019-02-28T03:43:47.827Z,19.43
2019-02-28T03:46:16.060Z,17.17
2019-02-28T03:48:44.330Z,16.10
2019-02-28T03:51:12.977Z,21.77
2019-02-28T03:53:41.582Z,18.87
2019-02-28T03:56:14.293Z,20.43
2019-02-28T03:58:46.538Z,21.10
2019-02-28T04:01:14.439Z,21.13
2019-02-28T04:03:42.686Z,18.13
2019-02-28T04:06:11.211Z,21.43
2019-02-28T04:08:39.795Z,17.47
2019-02-28T04:11:07.652Z,18.37
2019-02-28T04:13:36.342Z,19.07
2019-02-28T04:16:09.252Z,19.03
2019-02-28T04:18:45.897Z,22.17
2019-02-28T04:21:21.404Z,18.83
2019-02-28T04:23:50.033Z,17.90
2019-02-28T04:26:18.307Z,18.87
2019-02-28T04:28:53.513Z,14.93
2019-02-28T04:31:20.075Z,19.80
2019-02-28T04:33:54.748Z,17.03
2019-02-28T04:36:22.572Z,23.70
2019-02-28T04:38:51.705Z,18.63
2019-02-28T04:41:32.796Z,19.40
2019-02-28T04:44:06.425Z,17.53
2019-02-28T04:46:34.732Z,22.17
2019-02-28T04:49:03.025Z,19.70
2019-02-28T04:51:31.263Z,18.63
2019-02-28T04:53:59.546Z,21.07
2019-02-28T04:56:27.764Z,20.70
2019-02-28T04:58:56.470Z,18.63
2019-02-28T05:01:32.201Z,18.03
2019-02-28T05:04:02.176Z,20.67
2019-02-28T05:06:37.176Z,21.13
2019-02-28T05:09:06.979Z,21.13
2019-02-28T05:11:34.493Z,30.63
2019-02-28T05:14:02.958Z,33.77
2019-02-28T05:16:30.817Z,21.03
2019-02-28T05:19:01.587Z,27.83
2019-02-28T05:21:29.217Z,29.97
2019-02-28T05:23:57.197Z,24.27
2019-02-28T05:26:26.227Z,33.00
2019-02-28T05:29:01.866Z,51.40
2019-02-28T05:31:30.354Z,46.13
2019-02-28T05:33:58.962Z,71.53
2019-02-28T05:36:27.203Z,79.27
2019-02-28T05:38:56.689Z,31.37
2019-02-28T05:41:36.214Z,27.33
2019-02-28T05:44:15.025Z,30.60
2019-02-28T05:46:43.703Z,24.70
2019-02-28T05:49:12.399Z,28.70
2019-02-28T05:51:40.222Z,27.93
2019-02-28T05:54:08.822Z,21.13
2019-02-28T05:56:36.759Z,23.63
2019-02-28T05:59:04.665Z,24.93
2019-02-28T06:01:33.351Z,22.93
2019-02-28T06:04:03.315Z,22.17
2019-02-28T06:06:38.513Z,19.13
2019-02-28T06:09:06.830Z,18.20
2019-02-28T06:11:35.836Z,16.50
2019-02-28T06:14:11.568Z,19.50
2019-02-28T06:16:40.133Z,17.07
2019-02-28T06:19:09.094Z,16.70
2019-02-28T06:21:49.185Z,17.87
2019-02-28T06:24:17.502Z,21.87
2019-02-28T06:26:45.448Z,17.73
2019-02-28T06:29:13.640Z,16.27
2019-02-28T06:31:41.962Z,16.90
2019-02-28T06:34:10.354Z,16.20
2019-02-28T06:36:38.645Z,14.67
2019-02-28T06:39:07.222Z,16.80
2019-02-28T06:41:35.947Z,19.63
2019-02-28T06:44:04.566Z,15.20
2019-02-28T06:46:33.126Z,16.03
2019-02-28T06:49:06.888Z,16.40
2019-02-28T06:51:38.517Z,15.47
2019-02-28T06:54:07.938Z,15.93
2019-02-28T06:56:44.164Z,13.67
2019-02-28T06:59:23.989Z,18.83
2019-02-28T07:01:56.640Z,19.33
2019-02-28T07:04:28.363Z,20.90
2019-02-28T07:06:56.708Z,24.57
2019-02-28T07:09:24.905Z,25.47
2019-02-28T07:11:54.854Z,15.87
2019-02-28T07:14:33.051Z,20.00
2019-02-28T07:17:01.736Z,15.33
2019-02-28T07:19:30.276Z,16.93
2019-02-28T07:21:58.496Z,16.97
2019-02-28T07:24:27.189Z,20.70
2019-02-28T07:26:55.385Z,19.87
2019-02-28T07:29:23.750Z,16.63
2019-02-28T07:31:52.029Z,18.80
2019-02-28T07:34:23.807Z,22.50
2019-02-28T07:36:51.094Z,19.73
2019-02-28T07:39:19.353Z,20.57
2019-02-28T07:41:48.079Z,17.17
2019-02-28T07:44:21.223Z,20.70
2019-02-28T07:46:53.449Z,18.93
2019-02-28T07:49:22.218Z,19.47
2019-02-28T07:52:02.197Z,16.93
2019-02-28T07:54:43.192Z,23.47
2019-02-28T07:57:16.957Z,24.57
2019-02-28T07:59:42.726Z,25.03
2019-02-28T08:02:10.771Z,30.17
2019-02-28T08:04:39.440Z,22.33
2019-02-28T08:07:08.125Z,28.20
2019-02-28T08:09:55.351Z,20.50
2019-02-28T08:12:23.694Z,22.23
2019-02-28T08:15:13.746Z,20.10
2019-02-28T08:17:44.033Z,22.63
2019-02-28T08:20:12.665Z,19.43
2019-02-28T08:22:41.947Z,19.73
2019-02-28T08:25:13.256Z,18.73
2019-02-28T08:27:41.228Z,19.10
2019-02-28T08:30:28.575Z,18.03
2019-02-28T08:32:57.553Z,19.33
2019-02-28T08:35:25.987Z,18.40
2019-02-28T08:38:06.918Z,23.07
2019-02-28T08:40:35.700Z,26.77
2019-02-28T08:43:03.981Z,23.77
2019-02-28T08:45:33.522Z,26.90
2019-02-28T08:48:09.558Z,21.67
2019-02-28T08:50:37.837Z,21.30
2019-02-28T08:53:06.570Z,24.97
2019-02-28T08:55:38.291Z,24.67
2019-02-28T08:58:24.567Z,24.60
2019-02-28T09:00:52.854Z,23.20
2019-02-28T09:03:21.071Z,24.47
2019-02-28T09:05:49.476Z,21.40
2019-02-28T09:08:17.392Z,26.77
2019-02-28T09:10:46.965Z,22.87
2019-02-28T09:13:25.585Z,24.70
2019-02-28T09:15:54.238Z,22.87
2019-02-28T09:18:23.026Z,26.90
2019-02-28T09:20:51.809Z,28.57
2019-02-28T09:23:20.487Z,24.73
2019-02-28T09:25:48.884Z,25.33
2019-02-28T09:28:17.653Z,23.97
2019-02-28T09:30:46.462Z,23.50
2019-02-28T09:33:15.294Z,22.37
2019-02-28T09:35:46.269Z,21.17
2019-02-28T09:38:20.401Z,22.67
2019-02-28T09:43:28.758Z,23.50
2019-02-28T09:45:56.944Z,23.93
2019-02-28T09:48:24.548Z,22.87
2019-02-28T09:50:57.744Z,21.70
2019-02-28T09:53:29.979Z,22.67
2019-02-28T09:55:58.664Z,23.17
2019-02-28T09:58:29.303Z,22.03
2019-02-28T10:04:10.420Z,24.77
2019-02-28T10:06:38.667Z,23.17
2019-02-28T10:09:08.819Z,25.23
2019-02-28T10:11:37.417Z,23.80
2019-02-28T10:14:05.850Z,25.17
2019-02-28T10:16:53.391Z,23.90
2019-02-28T10:19:45.744Z,22.97
2019-02-28T10:22:17.879Z,27.43
2019-02-28T10:24:46.229Z,22.90
2019-02-28T10:27:14.657Z,22.63
2019-02-28T10:29:43.137Z,22.67
2019-02-28T10:32:11.720Z,28.70
2019-02-28T10:34:39.843Z,25.43
2019-02-28T10:37:08.724Z,22.27
2019-02-28T10:39:40.325Z,23.07
2019-02-28T10:42:14.613Z,23.40
2019-02-28T10:44:42.973Z,23.70
2019-02-28T10:47:11.546Z,22.13
2019-02-28T10:49:39.892Z,24.13
2019-02-28T10:52:30.422Z,23.70
2019-02-28T10:55:07.515Z,24.17
2019-02-28T10:57:54.535Z,25.63
2019-02-28T11:01:07.765Z,24.23
2019-02-28T11:04:00.270Z,28.10
2019-02-28T11:06:39.252Z,20.97
2019-02-28T11:12:09.399Z,23.00
2019-02-28T11:14:38.794Z,29.47
2019-02-28T11:17:13.508Z,26.13
2019-02-28T11:19:52.019Z,24.67
2019-02-28T11:22:44.472Z,26.37
2019-02-28T11:25:13.237Z,24.23
2019-02-28T11:27:42.145Z,23.50
2019-02-28T11:30:53.221Z,27.43
2019-02-28T11:33:22.857Z,27.97
2019-02-28T11:35:51.220Z,24.07
2019-02-28T11:38:21.503Z,26.67
2019-02-28T11:40:57.487Z,23.63
2019-02-28T11:43:53.725Z,24.43
2019-02-28T11:46:22.760Z,28.23
2019-02-28T11:48:53.974Z,27.53
2019-02-28T11:51:22.333Z,26.17
2019-02-28T11:54:12.295Z,28.43
2019-02-28T11:56:46.185Z,27.83
2019-02-28T11:59:33.164Z,24.57
2019-02-28T12:02:03.931Z,28.23
2019-02-28T12:04:33.773Z,22.83
2019-02-28T12:07:03.200Z,25.40
2019-02-28T12:09:51.506Z,26.50
2019-02-28T12:12:26.688Z,28.20
2019-02-28T12:14:55.394Z,24.70
2019-02-28T12:17:25.530Z,26.30
2019-02-28T12:19:54.426Z,24.20
2019-02-28T12:25:33.003Z,24.47
2019-02-28T12:30:41.998Z,21.70
2019-02-28T12:33:10.594Z,25.40
2019-02-28T12:35:40.486Z,23.60
2019-02-28T12:38:15.145Z,27.93
2019-02-28T12:40:45.659Z,25.67
2019-02-28T12:43:13.500Z,23.63
2019-02-28T12:46:22.195Z,22.97
2019-02-28T12:48:53.208Z,24.87
2019-02-28T12:51:36.568Z,25.50
2019-02-28T12:54:04.014Z,24.37
2019-02-28T12:56:31.968Z,21.77
2019-02-28T12:59:00.453Z,19.67
2019-02-28T13:01:29.125Z,23.30
2019-02-28T13:04:00.649Z,21.73
2019-02-28T13:06:33.188Z,20.13
2019-02-28T13:09:01.194Z,23.80
2019-02-28T13:14:30.522Z,22.40
2019-02-28T13:16:58.830Z,23.00
2019-02-28T13:19:26.958Z,21.73
2019-02-28T13:21:55.712Z,21.00
2019-02-28T13:24:24.252Z,20.50
2019-02-28T13:26:53.046Z,23.37
2019-02-28T13:29:22.307Z,22.07
2019-02-28T13:31:50.313Z,30.93
2019-02-28T13:34:19.153Z,21.37
2019-02-28T13:36:47.552Z,21.90
2019-02-28T13:39:15.827Z,18.77
2019-02-28T13:41:44.492Z,20.77
2019-02-28T13:44:12.548Z,22.17
2019-02-28T13:46:40.893Z,19.30
2019-02-28T13:49:12.073Z,20.27
2019-02-28T13:51:46.746Z,19.20
2019-02-28T13:54:34.465Z,19.90
2019-02-28T13:57:08.101Z,21.80
2019-02-28T13:59:40.359Z,20.40
2019-02-28T14:02:09.037Z,18.20
2019-02-28T14:04:37.830Z,22.47
2019-02-28T14:07:07.721Z,21.20
2019-02-28T14:09:36.252Z,19.90
2019-02-28T14:12:04.635Z,20.37
2019-02-28T14:14:33.016Z,20.07
2019-02-28T14:17:02.044Z,19.77
2019-02-28T14:19:30.652Z,18.57
2019-02-28T14:21:59.274Z,21.33
2019-02-28T14:24:30.847Z,21.03
2019-02-28T14:26:57.920Z,19.67
2019-02-28T14:29:48.258Z,20.10
2019-02-28T14:32:25.497Z,22.53
2019-02-28T14:34:57.318Z,21.80
2019-02-28T14:37:25.010Z,20.80
2019-02-28T14:39:53.388Z,22.27
2019-02-28T14:42:22.126Z,23.17
2019-02-28T14:44:50.790Z,24.77
2019-02-28T14:47:18.729Z,24.57
2019-02-28T14:49:47.475Z,23.97
2019-02-28T14:52:15.824Z,25.53
2019-02-28T14:54:43.401Z,30.50
2019-02-28T14:57:13.438Z,25.37
2019-02-28T14:59:48.853Z,24.63
2019-02-28T15:05:38.533Z,26.47
2019-02-28T15:08:06.974Z,23.20
2019-02-28T15:10:55.739Z,25.57
2019-02-28T15:13:24.364Z,30.53
2019-02-28T15:15:54.323Z,23.63
2019-02-28T15:18:30.031Z,24.10
2019-02-28T15:21:18.989Z,25.60
2019-02-28T15:23:47.303Z,20.20
2019-02-28T15:26:15.928Z,23.07
2019-02-28T15:28:45.489Z,22.73
2019-02-28T15:34:30.215Z,24.67
2019-02-28T15:37:07.035Z,24.80
2019-02-28T15:39:54.615Z,20.67
2019-02-28T15:42:22.642Z,23.50
2019-02-28T15:44:51.995Z,26.47
2019-02-28T15:47:23.236Z,21.53
2019-02-28T15:49:56.679Z,24.07
2019-02-28T15:58:28.356Z,24.33
2019-02-28T16:00:57.509Z,20.43
2019-02-28T16:03:33.481Z,29.70
2019-02-28T16:06:01.739Z,43.43
2019-02-28T16:08:30.580Z,52.63
2019-02-28T16:10:59.581Z,98.20
2019-02-28T16:13:39.925Z,51.93
2019-02-28T16:16:08.751Z,25.10
2019-02-28T16:18:37.550Z,23.10
2019-02-28T16:21:09.899Z,25.23
2019-02-28T16:23:37.946Z,19.80
2019-02-28T16:26:06.551Z,20.87
2019-02-28T16:28:34.226Z,24.20
2019-02-28T16:31:03.224Z,26.50
2019-02-28T16:33:43.184Z,23.10
2019-02-28T16:36:11.551Z,17.37
2019-02-28T16:38:42.424Z,18.80
2019-02-28T16:41:17.125Z,26.27
2019-02-28T16:43:45.392Z,19.20
2019-02-28T16:46:24.881Z,21.80
2019-02-28T16:48:53.627Z,22.10
2019-02-28T16:51:22.290Z,24.10
2019-02-28T16:53:50.668Z,27.30
2019-02-28T16:56:59.678Z,25.77
2019-02-28T16:59:28.434Z,34.33
2019-02-28T17:04:54.837Z,27.90
2019-02-28T17:07:22.479Z,24.00
2019-02-28T17:09:51.293Z,23.80
2019-02-28T17:12:54.072Z,29.57
2019-02-28T17:18:13.098Z,26.50
2019-02-28T17:20:42.069Z,29.73
2019-02-28T17:23:11.800Z,32.37
2019-02-28T17:25:40.238Z,28.20
2019-02-28T17:31:23.557Z,27.00
2019-02-28T17:33:51.864Z,33.63
2019-02-28T17:36:20.624Z,27.03
2019-02-28T17:38:59.998Z,24.57
2019-02-28T17:41:28.382Z,27.13
2019-02-28T17:44:37.546Z,25.73
2019-02-28T17:47:55.819Z,28.67
2019-02-28T17:51:11.050Z,28.83
2019-02-28T17:54:11.034Z,34.10
2019-02-28T17:56:51.824Z,28.60
2019-02-28T17:59:32.578Z,25.60
2019-02-28T18:02:39.376Z,25.43
2019-02-28T18:05:36.480Z,25.77
2019-02-28T18:08:37.753Z,26.30
2019-02-28T18:11:50.728Z,25.60
2019-02-28T18:14:42.572Z,27.70
2019-02-28T18:17:49.311Z,28.20
2019-02-28T18:20:29.891Z,34.10
2019-02-28T18:23:06.327Z,33.30
2019-02-28T18:26:15.513Z,25.13
2019-02-28T18:29:22.223Z,36.17
2019-02-28T18:31:53.907Z,34.20
2019-02-28T18:34:24.135Z,35.80
2019-02-28T18:36:52.959Z,31.57
2019-02-28T18:39:21.395Z,31.83
2019-02-28T18:41:50.783Z,24.50
2019-02-28T18:44:26.933Z,25.33
2019-02-28T18:46:55.592Z,23.00
2019-02-28T18:49:26.685Z,24.47
2019-02-28T18:52:07.213Z,22.77
2019-02-28T18:54:34.806Z,19.20
2019-02-28T18:57:02.809Z,23.87
2019-02-28T18:59:31.320Z,25.50
2019-02-28T19:01:59.240Z,24.37
2019-02-28T19:04:28.563Z,21.30
2019-02-28T19:06:57.056Z,21.30
2019-02-28T19:09:25.973Z,20.30
2019-02-28T19:11:55.181Z,25.50
2019-02-28T19:14:46.920Z,22.27
2019-02-28T19:17:15.270Z,21.33
2019-02-28T19:19:43.708Z,27.37
2019-02-28T19:22:17.001Z,25.87
2019-02-28T19:24:45.688Z,23.33
2019-02-28T19:27:13.931Z,26.57
2019-02-28T19:29:41.921Z,28.97
2019-02-28T19:32:09.933Z,24.17
2019-02-28T19:34:38.697Z,36.87
2019-02-28T19:37:07.034Z,27.10
2019-02-28T19:39:35.789Z,31.20
2019-02-28T19:42:04.233Z,23.47
2019-02-28T19:44:32.197Z,27.80
2019-02-28T19:47:01.003Z,26.60
2019-02-28T19:49:29.339Z,26.97
2019-02-28T19:51:56.982Z,24.57
2019-02-28T19:54:24.973Z,30.87
2019-02-28T19:56:53.316Z,20.47
2019-02-28T19:59:40.380Z,25.20
2019-02-28T20:02:08.895Z,23.27
2019-02-28T20:04:37.591Z,18.33
2019-02-28T20:07:06.014Z,20.87
2019-02-28T20:09:56.153Z,20.33
2019-02-28T20:12:24.856Z,18.03
2019-02-28T20:14:53.886Z,19.27
2019-02-28T20:17:23.201Z,17.87
2019-02-28T20:23:11.206Z,18.00
2019-02-28T20:25:39.421Z,14.70
2019-02-28T20:28:09.196Z,18.90
2019-02-28T20:30:38.298Z,12.97
2019-02-28T20:33:06.457Z,10.87
2019-02-28T20:35:34.700Z,14.17
2019-02-28T20:38:03.024Z,15.23
2019-02-28T20:40:50.430Z,12.53
2019-02-28T20:43:19.962Z,17.70
2019-02-28T20:45:48.942Z,7.50
2019-02-28T20:48:18.335Z,9.97
2019-02-28T20:51:06.166Z,14.67
2019-02-28T20:53:35.177Z,12.50
2019-02-28T20:56:03.954Z,11.80
2019-02-28T20:58:32.278Z,9.50
2019-02-28T21:01:01.165Z,12.10
2019-02-28T21:03:30.003Z,7.87
2019-02-28T21:05:57.896Z,13.83
2019-02-28T21:08:26.774Z,12.23
2019-02-28T21:10:55.419Z,11.33
2019-02-28T21:13:24.214Z,15.30
2019-02-28T21:15:52.167Z,10.60
2019-02-28T21:18:20.621Z,12.10
2019-02-28T21:20:48.668Z,12.63
2019-02-28T21:23:16.678Z,10.67
2019-02-28T21:25:45.410Z,10.30
2019-02-28T21:28:13.895Z,10.63
2019-02-28T21:30:42.349Z,10.30
2019-02-28T21:33:10.985Z,10.90
2019-02-28T21:35:39.770Z,10.83
2019-02-28T21:38:08.118Z,10.40
2019-02-28T21:40:36.525Z,15.70
2019-02-28T21:43:23.855Z,11.20
2019-02-28T21:45:52.926Z,6.37
2019-02-28T21:48:21.241Z,11.30
2019-02-28T21:50:50.433Z,14.23
2019-02-28T21:53:20.255Z,10.17
2019-02-28T21:56:09.102Z,10.20
2019-02-28T22:01:58.586Z,13.40
2019-02-28T22:04:27.482Z,12.80
2019-02-28T22:06:55.703Z,10.77
2019-02-28T22:09:23.557Z,14.07
2019-02-28T22:11:52.165Z,11.47
2019-02-28T22:14:19.718Z,11.80
2019-02-28T22:16:48.268Z,21.43
2019-02-28T22:19:17.297Z,13.93
2019-02-28T22:21:45.293Z,10.03
2019-02-28T22:24:14.371Z,18.30
2019-02-28T22:26:43.606Z,12.07
2019-02-28T22:29:31.265Z,9.97
2019-02-28T22:32:13.585Z,8.23
2019-02-28T22:34:53.191Z,12.43
2019-02-28T22:37:20.777Z,12.93
2019-02-28T22:39:49.364Z,10.40
2019-02-28T22:42:22.192Z,8.30
2019-02-28T22:44:57.803Z,13.20
2019-02-28T22:47:25.306Z,17.73
2019-02-28T22:49:53.655Z,12.13
2019-02-28T22:52:21.989Z,7.97
2019-02-28T22:54:50.342Z,9.97
2019-02-28T22:57:18.710Z,12.83
2019-02-28T22:59:47.406Z,9.17
2019-02-28T23:02:16.096Z,9.97
2019-02-28T23:04:44.852Z,9.27
2019-02-28T23:07:13.164Z,12.57
2019-02-28T23:09:41.828Z,10.63
2019-02-28T23:12:10.536Z,12.20
2019-02-28T23:14:40.803Z,12.70
2019-02-28T23:17:09.149Z,10.07
2019-02-28T23:19:37.438Z,11.17
2019-02-28T23:22:27.045Z,6.47
2019-02-28T23:24:55.731Z,10.40
2019-02-28T23:27:23.970Z,14.80
2019-02-28T23:30:14.117Z,9.93
2019-02-28T23:32:55.916Z,10.70
2019-02-28T23:35:44.809Z,14.07
2019-02-28T23:38:13.101Z,12.10
2019-02-28T23:40:41.462Z,8.83
2019-02-28T23:43:10.055Z,9.47
2019-02-28T23:45:38.898Z,10.13
2019-02-28T23:48:07.465Z,10.40
2019-02-28T23:50:36.327Z,9.50
2019-02-28T23:53:05.034Z,15.00
2019-02-28T23:55:33.000Z,9.67
2019-02-28T23:58:01.754Z,13.00
